Time;durP1;ratioP1;P1;durP2;ratioP2;P2;SDS_P1;SDS_P2;PMS_P1;PMS_P2;Temp;Humidity;BMP_temperature;BMP_pressure;BME280_temperature;BME280_humidity;BME280_pressure;Samples;Min_cycle;Max_cycle;Signal;HPM_P1;HPM_P2
2021/12/11 00:02:13;;;;;;;27.43;20.27;;;3.80;99.90;;;;;;5016917;28;20483;-73
2021/12/11 00:04:42;;;;;;;27.13;21.37;;;3.70;99.90;;;;;;5016704;28;20431;-73
2021/12/11 00:07:13;;;;;;;32.73;21.87;;;3.70;99.90;;;;;;5016778;28;20441;-73
2021/12/11 00:09:47;;;;;;;29.30;20.80;;;3.70;99.90;;;;;;5016737;28;20494;-71
2021/12/11 00:12:18;;;;;;;31.33;20.13;;;3.70;99.90;;;;;;5016842;28;20436;-71
2021/12/11 00:14:48;;;;;;;46.40;21.57;;;3.60;99.90;;;;;;5018041;28;20443;-71
2021/12/11 00:17:21;;;;;;;39.30;21.80;;;3.50;99.90;;;;;;5016589;28;20439;-71
2021/12/11 00:19:47;;;;;;;67.70;24.20;;;3.50;99.90;;;;;;5016157;28;20825;-71
2021/12/11 00:22:17;;;;;;;72.13;23.70;;;3.40;99.90;;;;;;5020026;28;20438;-72
2021/12/11 00:24:46;;;;;;;87.37;25.30;;;3.30;99.90;;;;;;5020203;28;20983;-71
2021/12/11 00:27:15;;;;;;;81.33;25.70;;;3.30;99.90;;;;;;5016392;28;20447;-71
2021/12/11 00:29:42;;;;;;;103.67;25.33;;;3.20;99.90;;;;;;5015913;28;21042;-71
2021/12/11 00:32:12;;;;;;;89.00;26.17;;;3.10;99.90;;;;;;5016676;28;20446;-71
2021/12/11 00:34:43;;;;;;;100.83;28.47;;;3.10;99.90;;;;;;5016523;28;20447;-72
2021/12/11 00:37:13;;;;;;;107.17;28.90;;;3.10;99.90;;;;;;5016290;28;20433;-72
2021/12/11 00:39:47;;;;;;;69.57;28.20;;;3.10;99.90;;;;;;5016165;28;20477;-71
2021/12/11 00:42:14;;;;;;;56.17;26.23;;;3.10;99.90;;;;;;5016287;28;20488;-72
2021/12/11 00:44:44;;;;;;;100.27;30.07;;;3.10;99.90;;;;;;5016276;28;20449;-72
2021/12/11 00:47:15;;;;;;;74.27;28.33;;;3.10;99.90;;;;;;5015929;28;20449;-72
2021/12/11 00:49:48;;;;;;;82.17;29.97;;;3.20;99.90;;;;;;5015611;28;20473;-71
2021/12/11 00:52:15;;;;;;;71.07;29.37;;;3.20;99.90;;;;;;5015454;28;20773;-71
2021/12/11 00:54:43;;;;;;;62.33;30.00;;;3.20;99.90;;;;;;5015846;28;20456;-71
2021/12/11 00:57:12;;;;;;;57.67;31.30;;;3.20;99.90;;;;;;5015871;28;20454;-71
2021/12/11 00:59:39;;;;;;;52.33;28.30;;;3.20;99.90;;;;;;5015565;28;20466;-71
2021/12/11 01:02:07;;;;;;;52.63;29.03;;;3.30;99.90;;;;;;5015680;28;20447;-71
2021/12/11 01:04:41;;;;;;;54.17;29.00;;;3.40;99.90;;;;;;5015768;28;20446;-71
2021/12/11 01:07:16;;;;;;;41.13;27.13;;;3.40;99.90;;;;;;5015686;28;20533;-71
2021/12/11 01:09:49;;;;;;;51.30;28.67;;;3.40;99.90;;;;;;5015677;28;20474;-71
2021/12/11 01:12:24;;;;;;;42.60;26.57;;;3.40;99.90;;;;;;5015793;28;20446;-72
2021/12/11 01:14:56;;;;;;;49.50;26.50;;;3.40;99.90;;;;;;5015025;28;20462;-71
2021/12/11 01:17:31;;;;;;;48.43;27.03;;;3.50;99.90;;;;;;5015400;28;20435;-71
2021/12/11 01:20:01;;;;;;;43.07;25.40;;;3.40;99.90;;;;;;5015047;28;20487;-71
2021/12/11 01:22:34;;;;;;;42.60;25.70;;;3.40;99.90;;;;;;5015091;28;20802;-72
2021/12/11 01:25:06;;;;;;;42.83;26.33;;;3.40;99.90;;;;;;5015219;28;20520;-71
2021/12/11 01:27:38;;;;;;;37.77;26.00;;;3.50;99.90;;;;;;5015193;28;20435;-71
2021/12/11 01:30:08;;;;;;;43.60;27.17;;;3.50;99.90;;;;;;5015995;28;20470;-71
2021/12/11 01:32:36;;;;;;;46.93;27.67;;;3.50;99.90;;;;;;5015383;28;20472;-71
2021/12/11 01:35:08;;;;;;;45.30;29.67;;;3.60;99.90;;;;;;5015256;28;20446;-71
2021/12/11 01:37:36;;;;;;;42.70;26.27;;;3.60;99.90;;;;;;5015328;28;20435;-71
2021/12/11 01:40:07;;;;;;;43.30;26.10;;;3.70;99.90;;;;;;5015270;28;20459;-71
2021/12/11 01:42:35;;;;;;;48.37;27.30;;;3.60;99.90;;;;;;5014919;28;20443;-71
2021/12/11 01:45:06;;;;;;;40.03;24.80;;;3.60;99.90;;;;;;5014916;28;20451;-71
2021/12/11 01:47:35;;;;;;;45.80;27.57;;;3.60;99.90;;;;;;5014411;28;20921;-71
2021/12/11 01:50:08;;;;;;;45.40;26.70;;;3.70;99.90;;;;;;5015006;28;20493;-72
2021/12/11 01:52:40;;;;;;;47.73;29.50;;;3.70;99.90;;;;;;5014774;28;20451;-72
2021/12/11 01:55:09;;;;;;;43.57;27.87;;;3.70;99.90;;;;;;5015645;28;20526;-71
2021/12/11 01:57:38;;;;;;;47.93;27.30;;;3.70;99.90;;;;;;5014622;28;20446;-71
2021/12/11 02:00:12;;;;;;;46.87;29.17;;;3.80;99.90;;;;;;5014673;28;20487;-72
2021/12/11 02:02:42;;;;;;;42.90;27.70;;;3.80;99.90;;;;;;5014467;28;20435;-72
2021/12/11 02:05:11;;;;;;;44.00;28.50;;;3.80;99.90;;;;;;5014630;28;20442;-72
2021/12/11 02:07:43;;;;;;;48.50;28.83;;;3.80;99.90;;;;;;5014538;28;20455;-72
2021/12/11 02:10:18;;;;;;;49.00;28.83;;;3.80;99.90;;;;;;5014813;28;20468;-72
2021/12/11 02:12:47;;;;;;;46.60;29.13;;;3.80;99.90;;;;;;5014523;28;20489;-71
2021/12/11 02:15:24;;;;;;;44.67;28.23;;;3.90;99.90;;;;;;5015677;28;20455;-71
2021/12/11 02:17:57;;;;;;;45.17;27.67;;;3.90;99.90;;;;;;5015616;28;20455;-71
2021/12/11 02:20:31;;;;;;;48.43;28.93;;;3.80;99.90;;;;;;5014439;28;20450;-72
2021/12/11 02:23:00;;;;;;;47.23;28.30;;;3.90;99.90;;;;;;5014172;28;20470;-72
2021/12/11 02:25:32;;;;;;;48.27;27.80;;;3.90;99.90;;;;;;5014096;28;20451;-71
2021/12/11 02:28:03;;;;;;;56.20;31.50;;;4.00;99.90;;;;;;5014174;28;20463;-71
2021/12/11 02:30:33;;;;;;;44.67;29.67;;;4.00;99.90;;;;;;5014133;28;20471;-71
2021/12/11 02:33:06;;;;;;;54.40;31.40;;;4.00;99.90;;;;;;5014046;28;20439;-71
2021/12/11 02:35:37;;;;;;;48.50;28.37;;;4.00;99.90;;;;;;5013667;28;20472;-72
2021/12/11 02:38:13;;;;;;;48.87;29.80;;;3.90;99.90;;;;;;5013993;28;20490;-72
2021/12/11 02:40:47;;;;;;;54.77;32.70;;;4.00;99.90;;;;;;5014085;28;20434;-71
2021/12/11 02:43:17;;;;;;;51.03;30.03;;;4.00;99.90;;;;;;5014075;28;20435;-71
2021/12/11 02:45:50;;;;;;;47.37;30.00;;;4.00;99.90;;;;;;5013909;28;20438;-71
2021/12/11 02:48:21;;;;;;;50.60;30.10;;;3.90;99.90;;;;;;5013566;28;20467;-71
2021/12/11 02:50:56;;;;;;;49.37;30.07;;;4.00;99.90;;;;;;5013924;28;20463;-71
2021/12/11 02:53:27;;;;;;;44.97;29.77;;;4.00;99.90;;;;;;5014851;28;20438;-71
2021/12/11 02:56:00;;;;;;;44.93;28.77;;;4.00;99.90;;;;;;5015470;28;20451;-71
2021/12/11 02:58:29;;;;;;;52.30;30.57;;;4.00;99.90;;;;;;5013874;28;20834;-72
2021/12/11 03:00:59;;;;;;;47.37;29.77;;;4.00;99.90;;;;;;5013886;28;20960;-72
2021/12/11 03:03:30;;;;;;;55.37;31.40;;;4.00;99.90;;;;;;5014049;28;20471;-71
2021/12/11 03:06:04;;;;;;;56.13;30.47;;;4.00;99.90;;;;;;5013492;28;20431;-72
2021/12/11 03:08:33;;;;;;;52.00;31.70;;;4.00;99.90;;;;;;5013461;28;20478;-71
2021/12/11 03:11:05;;;;;;;48.60;30.53;;;4.00;99.90;;;;;;5013313;28;21082;-71
2021/12/11 03:13:34;;;;;;;55.57;32.77;;;3.90;99.90;;;;;;5013302;28;20432;-71
2021/12/11 03:16:01;;;;;;;50.30;32.13;;;3.90;99.90;;;;;;5013434;28;20923;-71
2021/12/11 03:18:29;;;;;;;51.50;30.37;;;3.90;99.90;;;;;;5013518;28;20482;-72
2021/12/11 03:20:56;;;;;;;52.27;31.80;;;3.90;99.90;;;;;;5016465;28;20460;-72
2021/12/11 03:23:23;;;;;;;49.37;32.23;;;4.00;99.90;;;;;;5021254;28;20458;-72
2021/12/11 03:25:51;;;;;;;56.60;32.17;;;4.00;99.90;;;;;;5020666;28;20458;-72
2021/12/11 03:28:21;;;;;;;60.10;34.60;;;4.00;99.90;;;;;;5018320;28;20474;-72
2021/12/11 03:30:56;;;;;;;65.03;33.10;;;4.00;99.90;;;;;;5017305;28;21017;-72
2021/12/11 03:33:25;;;;;;;57.03;34.10;;;4.00;99.90;;;;;;5017330;28;20927;-72
2021/12/11 03:35:51;;;;;;;62.40;36.07;;;4.00;99.90;;;;;;5017364;28;20447;-72
2021/12/11 03:38:18;;;;;;;61.30;36.27;;;4.00;99.90;;;;;;5017180;28;20536;-72
2021/12/11 03:40:46;;;;;;;63.50;37.67;;;4.00;99.90;;;;;;5017415;28;20450;-72
2021/12/11 03:43:18;;;;;;;67.53;37.87;;;4.00;99.90;;;;;;5017659;28;20451;-72
2021/12/11 03:45:48;;;;;;;62.30;38.10;;;4.00;99.90;;;;;;5018066;28;20439;-72
2021/12/11 03:48:18;;;;;;;64.80;37.77;;;4.00;99.90;;;;;;5017676;28;20471;-72
2021/12/11 03:50:46;;;;;;;67.33;38.63;;;4.00;99.90;;;;;;5017721;28;20467;-72
2021/12/11 03:53:13;;;;;;;73.53;40.40;;;4.10;99.90;;;;;;5017198;28;20455;-72
2021/12/11 03:55:43;;;;;;;66.23;37.90;;;4.10;99.90;;;;;;5017132;28;20451;-72
2021/12/11 03:58:10;;;;;;;67.43;38.87;;;4.10;99.90;;;;;;5017016;28;20981;-72
2021/12/11 04:00:45;;;;;;;66.77;36.10;;;4.10;99.90;;;;;;5017009;28;20451;-72
2021/12/11 04:03:15;;;;;;;74.03;37.80;;;4.10;99.90;;;;;;5016794;28;20427;-72
2021/12/11 04:05:44;;;;;;;57.90;34.87;;;4.10;99.90;;;;;;5016985;28;20514;-72
2021/12/11 04:08:14;;;;;;;63.17;37.60;;;4.10;99.90;;;;;;5017869;28;20466;-72
2021/12/11 04:10:41;;;;;;;63.30;36.30;;;4.10;99.90;;;;;;5016564;28;20486;-72
2021/12/11 04:13:10;;;;;;;57.97;34.97;;;4.00;99.90;;;;;;5016859;28;20450;-72
2021/12/11 04:15:40;;;;;;;62.40;33.93;;;4.10;99.90;;;;;;5017105;28;20451;-72
2021/12/11 04:18:07;;;;;;;63.20;35.63;;;4.10;99.90;;;;;;5017435;28;20487;-72
2021/12/11 04:20:36;;;;;;;66.40;38.13;;;4.10;99.90;;;;;;5017616;28;20795;-72
2021/12/11 04:23:04;;;;;;;62.60;35.10;;;4.10;99.90;;;;;;5017477;28;20451;-72
2021/12/11 04:25:32;;;;;;;64.63;36.83;;;4.00;99.90;;;;;;5016793;28;20440;-72
2021/12/11 04:27:59;;;;;;;62.53;35.47;;;4.10;99.90;;;;;;5016120;28;20513;-72
2021/12/11 04:30:28;;;;;;;70.90;37.67;;;4.10;99.90;;;;;;5016622;28;20451;-72
2021/12/11 04:32:58;;;;;;;70.70;35.80;;;4.10;99.90;;;;;;5015893;28;20483;-72
2021/12/11 04:35:28;;;;;;;67.63;36.70;;;4.10;99.90;;;;;;5015491;28;20486;-72
2021/12/11 04:37:56;;;;;;;66.03;37.00;;;4.10;99.90;;;;;;5016031;28;20799;-72
2021/12/11 04:40:28;;;;;;;62.63;36.43;;;4.20;99.90;;;;;;5016007;28;20454;-72
2021/12/11 04:43:01;;;;;;;73.50;36.20;;;4.20;99.90;;;;;;5016366;28;20439;-72
2021/12/11 04:45:33;;;;;;;68.00;35.60;;;4.20;99.90;;;;;;5016258;28;20436;-72
2021/12/11 04:48:13;;;;;;;70.10;34.83;;;4.20;99.90;;;;;;5015575;28;20471;-72
2021/12/11 04:50:47;;;;;;;68.47;34.30;;;4.20;99.90;;;;;;5015831;28;20541;-72
2021/12/11 04:53:35;;;;;;;61.13;32.10;;;4.20;99.90;;;;;;5015698;28;20988;-72
2021/12/11 04:56:24;;;;;;;59.77;33.50;;;4.20;99.90;;;;;;5015681;28;20486;-72
2021/12/11 04:59:11;;;;;;;66.20;34.30;;;4.30;99.90;;;;;;5015509;28;20984;-72
2021/12/11 05:01:49;;;;;;;66.87;32.10;;;4.30;99.90;;;;;;5015392;28;20913;-72
2021/12/11 05:07:04;;;;;;;70.50;34.40;;;4.30;99.90;;;;;;5011018;28;20975;-72
2021/12/11 05:09:37;;;;;;;61.57;36.00;;;4.30;99.90;;;;;;5015143;28;20468;-72
2021/12/11 05:12:12;;;;;;;60.37;32.73;;;4.40;99.90;;;;;;5015472;28;20495;-72
2021/12/11 05:14:40;;;;;;;66.53;32.00;;;4.30;99.90;;;;;;5015625;28;20485;-72
2021/12/11 05:17:08;;;;;;;63.57;32.13;;;4.30;99.90;;;;;;5015414;28;20462;-72
2021/12/11 05:19:37;;;;;;;68.13;33.77;;;4.30;99.90;;;;;;5015127;28;20502;-72
2021/12/11 05:22:05;;;;;;;69.70;33.30;;;4.30;99.90;;;;;;5015357;28;20451;-72
2021/12/11 05:24:33;;;;;;;66.13;33.13;;;4.30;99.90;;;;;;5014899;28;20878;-72
2021/12/11 05:27:01;;;;;;;62.13;33.00;;;4.30;99.90;;;;;;5015107;28;20443;-72
2021/12/11 05:29:28;;;;;;;62.17;29.80;;;4.30;99.90;;;;;;5015432;28;20467;-72
2021/12/11 05:31:55;;;;;;;55.60;29.40;;;4.30;99.90;;;;;;5015343;28;20513;-72
2021/12/11 05:34:22;;;;;;;60.37;29.93;;;4.30;99.90;;;;;;5015445;28;20458;-71
2021/12/11 05:36:50;;;;;;;71.63;32.07;;;4.30;99.90;;;;;;5015317;28;20513;-72
2021/12/11 05:39:21;;;;;;;63.93;31.30;;;4.30;99.90;;;;;;5015584;28;20474;-72
2021/12/11 05:41:49;;;;;;;73.37;33.70;;;4.20;99.90;;;;;;5016943;28;20432;-72
2021/12/11 05:44:18;;;;;;;70.13;31.47;;;4.20;99.90;;;;;;5016129;28;20432;-72
2021/12/11 05:46:45;;;;;;;77.67;36.00;;;4.30;99.90;;;;;;5014756;28;20816;-72
2021/12/11 05:49:12;;;;;;;71.17;31.97;;;4.30;99.90;;;;;;5015344;28;20467;-72
2021/12/11 05:51:42;;;;;;;66.03;31.70;;;4.30;99.90;;;;;;5014998;28;20490;-72
2021/12/11 05:54:14;;;;;;;64.17;31.13;;;4.30;99.90;;;;;;5015031;28;20462;-72
2021/12/11 05:56:42;;;;;;;66.27;31.93;;;4.30;99.90;;;;;;5014967;28;20562;-72
2021/12/11 05:59:12;;;;;;;66.53;31.60;;;4.20;99.90;;;;;;5014998;28;20479;-72
2021/12/11 06:01:44;;;;;;;58.33;30.17;;;4.20;99.90;;;;;;5015048;28;20440;-72
2021/12/11 06:04:14;;;;;;;73.30;29.80;;;4.30;99.90;;;;;;5015297;28;20433;-72
2021/12/11 06:06:42;;;;;;;68.37;31.83;;;4.30;99.90;;;;;;5014892;28;20455;-72
2021/12/11 06:09:13;;;;;;;67.70;32.03;;;4.30;99.90;;;;;;5014901;28;20471;-72
2021/12/11 06:11:44;;;;;;;66.17;33.60;;;4.40;99.90;;;;;;5016336;28;20459;-72
2021/12/11 06:14:11;;;;;;;69.43;32.67;;;4.40;99.90;;;;;;5019228;28;20443;-73
2021/12/11 06:16:38;;;;;;;63.60;32.37;;;4.40;99.90;;;;;;5016411;28;20455;-72
2021/12/11 06:19:06;;;;;;;61.53;31.60;;;4.40;99.90;;;;;;5013832;28;20489;-72
2021/12/11 06:21:34;;;;;;;66.70;32.40;;;4.50;99.90;;;;;;5014020;28;20444;-72
2021/12/11 06:24:01;;;;;;;66.23;32.37;;;4.60;99.90;;;;;;5014041;28;20447;-72
2021/12/11 06:26:30;;;;;;;73.03;33.23;;;4.60;99.90;;;;;;5013698;28;20458;-72
2021/12/11 06:28:56;;;;;;;64.00;31.10;;;4.70;99.90;;;;;;5014051;28;20467;-72
2021/12/11 06:31:23;;;;;;;58.73;30.10;;;4.70;99.90;;;;;;5013893;28;20542;-72
2021/12/11 06:33:53;;;;;;;68.50;32.10;;;4.80;99.90;;;;;;5013552;28;20451;-72
2021/12/11 06:36:22;;;;;;;71.83;33.70;;;4.80;99.90;;;;;;5013779;28;20454;-72
2021/12/11 06:38:52;;;;;;;67.70;33.23;;;4.80;99.90;;;;;;5013799;28;20470;-72
2021/12/11 06:41:26;;;;;;;66.67;33.73;;;4.90;99.90;;;;;;5013777;28;20442;-72
2021/12/11 06:43:56;;;;;;;69.30;33.10;;;4.90;99.90;;;;;;5013702;28;20488;-72
2021/12/11 06:46:32;;;;;;;56.72;30.58;;;4.90;99.90;;;;;;5013998;28;20451;-74
2021/12/11 06:49:00;;;;;;;65.07;33.07;;;4.90;99.90;;;;;;5014275;28;20586;-73
2021/12/11 06:51:27;;;;;;;61.87;31.70;;;5.00;99.90;;;;;;5013938;28;20443;-73
2021/12/11 06:53:58;;;;;;;61.60;32.10;;;5.00;99.90;;;;;;5013961;28;20435;-74
2021/12/11 06:56:25;;;;;;;60.03;31.07;;;5.00;99.90;;;;;;5013789;28;20442;-73
2021/12/11 06:58:53;;;;;;;62.47;30.50;;;5.00;99.90;;;;;;5013020;28;20471;-74
2021/12/11 07:01:23;;;;;;;68.73;32.87;;;4.90;99.90;;;;;;5013962;28;20436;-73
2021/12/11 07:03:51;;;;;;;70.30;33.13;;;4.90;99.90;;;;;;5013689;28;20941;-73
2021/12/11 07:06:18;;;;;;;70.47;31.47;;;4.90;99.90;;;;;;5013348;28;20816;-74
2021/12/11 07:08:46;;;;;;;69.80;33.67;;;4.90;99.90;;;;;;5013285;28;20992;-74
2021/12/11 07:11:13;;;;;;;72.20;33.70;;;5.00;99.90;;;;;;5013591;28;20450;-74
2021/12/11 07:13:42;;;;;;;68.90;33.40;;;5.00;99.90;;;;;;5013687;28;20471;-74
2021/12/11 07:16:10;;;;;;;71.80;31.90;;;5.00;99.90;;;;;;5014012;28;20813;-74
2021/12/11 07:18:38;;;;;;;77.10;35.77;;;5.00;99.90;;;;;;5013434;28;20479;-74
2021/12/11 07:21:07;;;;;;;67.10;34.47;;;5.00;99.90;;;;;;5013535;28;20550;-74
2021/12/11 07:23:34;;;;;;;65.57;33.30;;;5.10;99.90;;;;;;5013481;28;20444;-74
2021/12/11 07:26:04;;;;;;;68.30;34.80;;;5.10;99.90;;;;;;5013625;28;20447;-74
2021/12/11 07:28:31;;;;;;;70.80;33.90;;;5.10;99.90;;;;;;5013401;28;20479;-74
2021/12/11 07:31:00;;;;;;;68.07;33.73;;;5.10;99.90;;;;;;5013467;28;20455;-74
2021/12/11 07:33:28;;;;;;;62.80;33.57;;;5.10;99.90;;;;;;5013313;28;20506;-74
2021/12/11 07:35:55;;;;;;;65.33;33.87;;;5.10;99.90;;;;;;5013302;28;20862;-74
2021/12/11 07:38:22;;;;;;;75.60;38.03;;;5.20;99.90;;;;;;5013054;28;20474;-74
2021/12/11 07:40:53;;;;;;;68.77;34.87;;;5.10;99.90;;;;;;5013375;28;20443;-74
2021/12/11 07:43:22;;;;;;;72.10;35.40;;;5.10;99.90;;;;;;5013762;28;20448;-74
2021/12/11 07:45:50;;;;;;;77.10;36.70;;;5.20;99.90;;;;;;5013319;28;20451;-75
2021/12/11 07:48:17;;;;;;;64.33;34.63;;;5.20;99.90;;;;;;5013268;28;20467;-74
2021/12/11 07:50:46;;;;;;;75.63;36.67;;;5.20;99.90;;;;;;5013258;28;20459;-75
2021/12/11 07:53:13;;;;;;;66.83;34.77;;;5.20;99.90;;;;;;5012816;28;20490;-74
2021/12/11 07:55:40;;;;;;;78.63;35.13;;;5.30;99.90;;;;;;5013243;28;20447;-74
2021/12/11 07:58:08;;;;;;;73.97;35.03;;;5.30;99.90;;;;;;5013080;28;20474;-74
2021/12/11 08:00:36;;;;;;;66.97;33.77;;;5.30;99.90;;;;;;5013154;28;20458;-74
2021/12/11 08:03:04;;;;;;;62.83;32.43;;;5.30;99.90;;;;;;5013103;28;20446;-74
2021/12/11 08:05:31;;;;;;;72.20;36.37;;;5.40;99.90;;;;;;5012918;28;20496;-74
2021/12/11 08:08:03;;;;;;;69.57;35.10;;;5.40;99.90;;;;;;5012757;28;20987;-74
2021/12/11 08:10:31;;;;;;;67.13;33.20;;;5.40;99.90;;;;;;5014287;28;20925;-74
2021/12/11 08:12:58;;;;;;;71.63;34.20;;;5.40;99.90;;;;;;5016134;28;20490;-74
2021/12/11 08:15:25;;;;;;;62.70;31.90;;;5.40;99.90;;;;;;5016536;28;20458;-75
2021/12/11 08:17:54;;;;;;;54.90;29.77;;;5.40;99.90;;;;;;5015963;28;20428;-73
2021/12/11 08:20:24;;;;;;;227.18;45.67;;;5.40;99.90;;;;;;5015479;28;20454;-71
2021/12/11 08:22:51;;;;;;;49.73;27.53;;;5.50;99.90;;;;;;5016164;28;20203;-71
2021/12/11 08:25:21;;;;;;;56.57;26.73;;;5.60;99.90;;;;;;5016377;28;20454;-74
2021/12/11 08:27:49;;;;;;;61.57;29.00;;;5.70;99.90;;;;;;5016281;28;20458;-75
2021/12/11 08:30:17;;;;;;;54.80;27.93;;;5.70;99.90;;;;;;5015950;28;21020;-75
2021/12/11 08:32:44;;;;;;;48.80;27.87;;;5.70;99.90;;;;;;5016047;28;20483;-75
2021/12/11 08:35:13;;;;;;;59.60;28.50;;;5.70;99.90;;;;;;5016209;28;20464;-76
2021/12/11 08:37:42;;;;;;;53.50;29.10;;;5.70;99.90;;;;;;5015737;28;20454;-74
2021/12/11 08:40:14;;;;;;;51.83;26.90;;;5.70;99.90;;;;;;5016083;28;20443;-74
2021/12/11 08:42:42;;;;;;;63.07;29.90;;;5.70;99.90;;;;;;5016036;28;20486;-74
2021/12/11 08:45:20;;;;;;;55.27;29.80;;;5.80;99.90;;;;;;5015971;28;20867;-74
2021/12/11 08:47:48;;;;;;;54.70;28.53;;;5.70;99.90;;;;;;5015957;28;20440;-75
2021/12/11 08:50:19;;;;;;;53.23;28.20;;;5.80;99.90;;;;;;5015987;28;20451;-74
2021/12/11 08:52:49;;;;;;;54.27;27.30;;;5.80;99.90;;;;;;5015517;28;20972;-74
2021/12/11 08:55:18;;;;;;;54.60;28.63;;;5.80;99.90;;;;;;5015813;28;20482;-74
2021/12/11 08:57:46;;;;;;;59.77;30.67;;;5.90;99.90;;;;;;5015599;28;20451;-74
2021/12/11 09:00:17;;;;;;;60.70;30.10;;;5.90;99.90;;;;;;5015661;28;20470;-74
2021/12/11 09:02:49;;;;;;;57.73;28.63;;;5.90;99.90;;;;;;5015676;28;20428;-74
2021/12/11 09:05:21;;;;;;;49.13;25.03;;;5.90;99.90;;;;;;5015676;28;20443;-74
2021/12/11 09:07:51;;;;;;;52.37;27.77;;;5.80;99.90;;;;;;5015550;28;20497;-74
2021/12/11 09:10:24;;;;;;;51.50;28.10;;;5.90;99.90;;;;;;5015526;28;20431;-74
2021/12/11 09:12:56;;;;;;;52.23;29.33;;;5.90;99.90;;;;;;5015421;28;20541;-74
2021/12/11 09:15:26;;;;;;;54.30;28.10;;;6.00;99.90;;;;;;5015526;28;20427;-74
2021/12/11 09:17:58;;;;;;;49.40;25.80;;;6.00;99.90;;;;;;5015202;28;20435;-74
2021/12/11 09:20:33;;;;;;;49.87;26.83;;;6.00;99.90;;;;;;5015648;28;20531;-74
2021/12/11 09:23:05;;;;;;;50.73;25.80;;;6.10;99.90;;;;;;5015322;28;20434;-74
2021/12/11 09:25:43;;;;;;;49.93;26.43;;;6.10;99.90;;;;;;5015548;28;20475;-75
2021/12/11 09:28:16;;;;;;;47.13;25.20;;;6.10;99.90;;;;;;5015319;28;20546;-75
2021/12/11 09:30:47;;;;;;;43.57;25.27;;;6.10;99.90;;;;;;5015173;28;20431;-75
2021/12/11 09:33:16;;;;;;;43.30;23.43;;;6.10;99.90;;;;;;5015112;28;20474;-74
2021/12/11 09:35:47;;;;;;;50.50;24.47;;;6.10;99.90;;;;;;5015254;28;20456;-75
2021/12/11 09:38:20;;;;;;;49.10;24.93;;;6.10;99.90;;;;;;5014987;28;20467;-74
2021/12/11 09:40:53;;;;;;;47.47;24.93;;;6.10;99.90;;;;;;5014738;28;20944;-74
2021/12/11 09:43:37;;;;;;;44.37;23.57;;;6.10;99.90;;;;;;5015249;28;20448;-74
2021/12/11 09:46:05;;;;;;;39.83;22.13;;;6.20;99.90;;;;;;5015138;28;20431;-75
2021/12/11 09:48:32;;;;;;;44.53;22.53;;;6.20;99.90;;;;;;5014965;28;21012;-75
2021/12/11 09:51:03;;;;;;;39.53;22.03;;;6.20;99.90;;;;;;5014533;28;20470;-75
2021/12/11 09:53:34;;;;;;;35.90;22.90;;;6.30;99.90;;;;;;5014695;28;20472;-75
2021/12/11 09:56:01;;;;;;;41.07;22.80;;;6.30;99.90;;;;;;5014664;28;20436;-75
2021/12/11 09:58:33;;;;;;;38.83;21.57;;;6.40;99.90;;;;;;5014583;28;20467;-74
2021/12/11 10:01:04;;;;;;;35.00;19.80;;;6.50;99.90;;;;;;5014868;28;20424;-75
2021/12/11 10:03:47;;;;;;;35.80;21.20;;;6.50;99.90;;;;;;5014565;28;20460;-74
2021/12/11 10:06:37;;;;;;;39.13;21.30;;;6.60;99.90;;;;;;5014551;28;20432;-75
2021/12/11 10:09:17;;;;;;;39.80;21.00;;;6.60;99.90;;;;;;5014428;28;20522;-74
2021/12/11 10:11:46;;;;;;;36.80;20.57;;;6.70;99.90;;;;;;5014469;28;20446;-74
2021/12/11 10:14:17;;;;;;;38.17;21.40;;;6.70;99.90;;;;;;5014170;28;20483;-74
2021/12/11 10:16:47;;;;;;;35.60;22.43;;;6.70;99.90;;;;;;5014507;28;20505;-74
2021/12/11 10:19:17;;;;;;;38.10;20.27;;;6.80;99.90;;;;;;5014321;28;20475;-74
2021/12/11 10:21:46;;;;;;;34.10;20.87;;;6.70;99.90;;;;;;5014063;28;20451;-74
2021/12/11 10:24:16;;;;;;;39.70;21.00;;;6.80;99.90;;;;;;5014296;28;20452;-74
2021/12/11 10:26:44;;;;;;;31.53;20.00;;;6.90;99.90;;;;;;5014430;28;20431;-74
2021/12/11 10:29:14;;;;;;;37.57;19.87;;;7.00;99.90;;;;;;5014253;28;20476;-74
2021/12/11 10:31:45;;;;;;;31.73;19.30;;;7.00;99.90;;;;;;5014170;28;20447;-74
2021/12/11 10:34:16;;;;;;;39.60;19.10;;;7.00;99.90;;;;;;5013203;28;21021;-74
2021/12/11 10:36:58;;;;;;;34.57;19.80;;;7.10;99.90;;;;;;5013906;28;20432;-74
2021/12/11 10:39:25;;;;;;;31.73;19.07;;;7.10;99.90;;;;;;5013951;28;20474;-74
2021/12/11 10:41:53;;;;;;;27.90;18.17;;;7.10;99.90;;;;;;5014001;28;20427;-73
2021/12/11 10:44:25;;;;;;;27.50;16.87;;;7.10;99.90;;;;;;5013654;28;20447;-73
2021/12/11 10:46:56;;;;;;;27.13;15.07;;;7.10;99.90;;;;;;5014083;28;20438;-72
2021/12/11 10:49:24;;;;;;;32.37;14.90;;;7.10;99.90;;;;;;5013785;28;20463;-72
2021/12/11 10:51:53;;;;;;;31.50;16.30;;;7.10;99.90;;;;;;5013858;28;20451;-73
2021/12/11 10:54:21;;;;;;;29.33;13.87;;;7.10;99.90;;;;;;5013744;28;20490;-72
2021/12/11 10:56:48;;;;;;;24.77;15.07;;;7.10;99.90;;;;;;5013751;28;20448;-72
2021/12/11 10:59:22;;;;;;;24.87;14.07;;;7.00;99.90;;;;;;5013644;28;20474;-74
2021/12/11 11:01:52;;;;;;;21.67;13.00;;;7.00;99.90;;;;;;5014136;28;20408;-74
2021/12/11 11:04:22;;;;;;;17.80;12.23;;;6.90;99.90;;;;;;5013840;28;20443;-75
2021/12/11 11:06:50;;;;;;;18.27;12.70;;;6.90;99.90;;;;;;5013702;28;20458;-75
2021/12/11 11:09:19;;;;;;;18.50;11.67;;;6.80;99.90;;;;;;5013572;28;21007;-75
2021/12/11 11:11:47;;;;;;;26.63;12.30;;;6.80;99.90;;;;;;5014036;28;20443;-75
2021/12/11 11:14:14;;;;;;;26.60;14.13;;;6.90;99.90;;;;;;5013548;28;20508;-75
2021/12/11 11:16:47;;;;;;;19.67;11.80;;;6.90;99.90;;;;;;5013800;28;20865;-75
2021/12/11 11:19:14;;;;;;;17.00;11.50;;;7.10;99.90;;;;;;5013250;28;20483;-75
2021/12/11 11:21:46;;;;;;;18.53;10.40;;;7.00;99.90;;;;;;5013351;28;20455;-74
2021/12/11 11:24:15;;;;;;;15.87;10.77;;;6.90;99.90;;;;;;5013385;28;20443;-74
2021/12/11 11:26:44;;;;;;;17.47;10.53;;;7.00;99.90;;;;;;5013485;28;20427;-72
2021/12/11 11:29:16;;;;;;;17.00;11.23;;;7.00;99.90;;;;;;5013401;28;20467;-72
2021/12/11 11:31:48;;;;;;;16.37;10.10;;;7.00;99.90;;;;;;5013615;28;20427;-73
2021/12/11 11:34:19;;;;;;;13.57;9.50;;;7.00;99.90;;;;;;5013217;28;20475;-75
2021/12/11 11:36:47;;;;;;;17.27;8.60;;;7.00;99.90;;;;;;5013129;28;20432;-75
2021/12/11 11:39:17;;;;;;;13.73;9.30;;;7.00;99.90;;;;;;5013356;28;20513;-75
2021/12/11 11:41:49;;;;;;;24.77;10.77;;;7.00;99.90;;;;;;5013510;28;20432;-77
2021/12/11 11:44:16;;;;;;;16.87;8.50;;;7.00;99.90;;;;;;5013895;28;20443;-77
2021/12/11 11:46:44;;;;;;;15.33;8.47;;;7.00;99.90;;;;;;5017009;28;20443;-72
2021/12/11 11:49:14;;;;;;;16.47;9.10;;;7.10;99.90;;;;;;5017375;28;20829;-71
2021/12/11 11:51:44;;;;;;;14.70;8.40;;;7.00;99.90;;;;;;5017303;28;20983;-71
2021/12/11 11:54:13;;;;;;;14.00;9.97;;;7.20;99.90;;;;;;5016895;28;20483;-71
2021/12/11 11:56:43;;;;;;;13.13;9.47;;;7.30;99.90;;;;;;5016933;28;20447;-72
2021/12/11 11:59:11;;;;;;;24.37;8.67;;;7.30;99.90;;;;;;5016848;28;20808;-71
2021/12/11 12:01:43;;;;;;;15.00;8.00;;;7.40;99.90;;;;;;5016851;28;20442;-72
2021/12/11 12:04:17;;;;;;;24.97;10.20;;;7.40;99.90;;;;;;5016891;28;20885;-72
2021/12/11 12:06:48;;;;;;;12.03;8.53;;;7.50;99.90;;;;;;5017022;28;20431;-71
2021/12/11 12:09:16;;;;;;;19.07;8.93;;;7.50;99.90;;;;;;5016417;28;20998;-72
2021/12/11 12:11:43;;;;;;;18.97;9.57;;;7.50;99.90;;;;;;5016666;28;20501;-71
2021/12/11 12:14:14;;;;;;;15.20;8.43;;;7.50;99.90;;;;;;5016574;28;20486;-71
2021/12/11 12:16:44;;;;;;;9.90;8.90;;;7.60;99.90;;;;;;5016560;28;20440;-71
2021/12/11 12:19:13;;;;;;;14.30;8.27;;;7.70;99.90;;;;;;5016380;28;20486;-72
2021/12/11 12:21:43;;;;;;;9.80;8.13;;;7.70;99.90;;;;;;5016656;28;20462;-73
2021/12/11 12:24:10;;;;;;;15.13;7.87;;;7.80;99.90;;;;;;5016220;28;20458;-72
2021/12/11 12:26:37;;;;;;;11.60;7.83;;;7.80;99.90;;;;;;5016180;28;20454;-72
2021/12/11 12:29:06;;;;;;;15.53;8.03;;;7.80;99.90;;;;;;5016878;28;20474;-72
2021/12/11 12:31:38;;;;;;;9.50;7.47;;;7.90;99.90;;;;;;5016186;28;20447;-72
2021/12/11 12:34:05;;;;;;;11.23;8.07;;;7.90;99.90;;;;;;5015844;28;21011;-73
2021/12/11 12:36:34;;;;;;;8.87;7.50;;;7.90;99.90;;;;;;5015883;28;20455;-74
2021/12/11 12:39:01;;;;;;;12.80;7.90;;;7.90;99.90;;;;;;5015984;28;20468;-74
2021/12/11 12:41:32;;;;;;;13.70;8.37;;;8.00;99.90;;;;;;5016151;28;20944;-73
2021/12/11 12:44:17;;;;;;;13.23;8.50;;;8.00;99.90;;;;;;5016349;28;20788;-73
2021/12/11 12:46:50;;;;;;;13.03;9.10;;;7.90;99.90;;;;;;5016267;28;20470;-73
2021/12/11 12:49:18;;;;;;;11.33;8.10;;;7.90;99.90;;;;;;5015915;28;20468;-73
2021/12/11 12:51:48;;;;;;;13.23;8.50;;;7.90;99.90;;;;;;5015471;28;20933;-73
2021/12/11 12:54:18;;;;;;;12.23;7.73;;;8.00;99.90;;;;;;5015693;28;20479;-74
2021/12/11 12:56:48;;;;;;;12.93;7.50;;;8.00;99.90;;;;;;5015304;28;20845;-73